sensor_id;sensor_type;location;lat;lon;timestamp;P1;durP1;ratioP1;P2;durP2;ratioP2
908;SDS011;441;51.192;6.788;2023-07-28T00:00:39;20.93;;;20.10;;
908;SDS011;441;51.192;6.788;2023-07-28T00:03:06;20.73;;;19.47;;
908;SDS011;441;51.192;6.788;2023-07-28T00:05:33;20.20;;;19.40;;
908;SDS011;441;51.192;6.788;2023-07-28T00:08:01;20.30;;;19.63;;
908;SDS011;441;51.192;6.788;2023-07-28T00:10:29;20.90;;;20.20;;
908;SDS011;441;51.192;6.788;2023-07-28T00:12:56;20.73;;;20.03;;
908;SDS011;441;51.192;6.788;2023-07-28T00:15:24;20.37;;;19.70;;
908;SDS011;441;51.192;6.788;2023-07-28T00:17:51;22.53;;;21.63;;
908;SDS011;441;51.192;6.788;2023-07-28T00:20:18;20.70;;;19.90;;
908;SDS011;441;51.192;6.788;2023-07-28T00:22:44;22.30;;;20.43;;
908;SDS011;441;51.192;6.788;2023-07-28T00:25:11;19.93;;;19.27;;
908;SDS011;441;51.192;6.788;2023-07-28T00:27:38;21.57;;;20.87;;
908;SDS011;441;51.192;6.788;2023-07-28T00:30:06;20.37;;;19.67;;
908;SDS011;441;51.192;6.788;2023-07-28T00:32:34;20.60;;;19.53;;
908;SDS011;441;51.192;6.788;2023-07-28T00:35:01;19.07;;;18.40;;
908;SDS011;441;51.192;6.788;2023-07-28T00:37:28;19.50;;;18.80;;
908;SDS011;441;51.192;6.788;2023-07-28T00:39:55;20.60;;;20.00;;
908;SDS011;441;51.192;6.788;2023-07-28T00:42:22;20.37;;;19.67;;
908;SDS011;441;51.192;6.788;2023-07-28T00:44:49;20.27;;;19.43;;
908;SDS011;441;51.192;6.788;2023-07-28T00:47:16;20.40;;;19.70;;
908;SDS011;441;51.192;6.788;2023-07-28T00:49:44;20.53;;;19.73;;
908;SDS011;441;51.192;6.788;2023-07-28T00:52:11;19.67;;;19.00;;
908;SDS011;441;51.192;6.788;2023-07-28T00:54:38;20.17;;;19.47;;
908;SDS011;441;51.192;6.788;2023-07-28T00:57:06;20.50;;;19.80;;
908;SDS011;441;51.192;6.788;2023-07-28T00:59:32;19.97;;;19.37;;
908;SDS011;441;51.192;6.788;2023-07-28T01:02:00;20.43;;;19.70;;
908;SDS011;441;51.192;6.788;2023-07-28T01:04:27;19.40;;;18.73;;
908;SDS011;441;51.192;6.788;2023-07-28T01:06:57;19.50;;;18.90;;
908;SDS011;441;51.192;6.788;2023-07-28T01:09:29;20.53;;;19.80;;
908;SDS011;441;51.192;6.788;2023-07-28T01:12:03;19.57;;;18.97;;
908;SDS011;441;51.192;6.788;2023-07-28T01:14:34;21.73;;;20.80;;
908;SDS011;441;51.192;6.788;2023-07-28T01:17:01;19.43;;;18.83;;
908;SDS011;441;51.192;6.788;2023-07-28T01:19:28;19.97;;;19.37;;
908;SDS011;441;51.192;6.788;2023-07-28T01:22:01;19.00;;;18.40;;
908;SDS011;441;51.192;6.788;2023-07-28T01:24:44;18.67;;;18.07;;
908;SDS011;441;51.192;6.788;2023-07-28T01:27:19;19.30;;;18.60;;
908;SDS011;441;51.192;6.788;2023-07-28T01:29:47;19.90;;;19.30;;
908;SDS011;441;51.192;6.788;2023-07-28T01:32:14;20.77;;;20.07;;
908;SDS011;441;51.192;6.788;2023-07-28T01:34:41;19.30;;;18.60;;
908;SDS011;441;51.192;6.788;2023-07-28T01:37:08;20.00;;;19.30;;
908;SDS011;441;51.192;6.788;2023-07-28T01:39:35;19.10;;;18.50;;
908;SDS011;441;51.192;6.788;2023-07-28T01:42:02;18.97;;;18.37;;
908;SDS011;441;51.192;6.788;2023-07-28T01:44:30;19.53;;;18.93;;
908;SDS011;441;51.192;6.788;2023-07-28T01:46:57;20.87;;;20.17;;
908;SDS011;441;51.192;6.788;2023-07-28T01:49:24;19.70;;;19.10;;
908;SDS011;441;51.192;6.788;2023-07-28T01:51:51;19.73;;;19.03;;
908;SDS011;441;51.192;6.788;2023-07-28T01:54:17;20.20;;;19.50;;
908;SDS011;441;51.192;6.788;2023-07-28T01:56:44;19.80;;;18.90;;
908;SDS011;441;51.192;6.788;2023-07-28T01:59:11;19.20;;;18.60;;
908;SDS011;441;51.192;6.788;2023-07-28T02:01:39;19.57;;;18.87;;
908;SDS011;441;51.192;6.788;2023-07-28T02:04:06;19.80;;;19.10;;
908;SDS011;441;51.192;6.788;2023-07-28T02:06:33;20.80;;;20.00;;
908;SDS011;441;51.192;6.788;2023-07-28T02:09:00;27.70;;;26.70;;
908;SDS011;441;51.192;6.788;2023-07-28T02:11:27;26.30;;;25.17;;
908;SDS011;441;51.192;6.788;2023-07-28T02:13:54;20.10;;;19.30;;
908;SDS011;441;51.192;6.788;2023-07-28T02:16:21;18.77;;;17.90;;
908;SDS011;441;51.192;6.788;2023-07-28T02:18:49;20.20;;;19.10;;
908;SDS011;441;51.192;6.788;2023-07-28T02:21:16;20.40;;;19.60;;
908;SDS011;441;51.192;6.788;2023-07-28T02:23:43;20.73;;;20.03;;
908;SDS011;441;51.192;6.788;2023-07-28T02:26:10;19.90;;;19.20;;
908;SDS011;441;51.192;6.788;2023-07-28T02:28:37;20.20;;;19.50;;
908;SDS011;441;51.192;6.788;2023-07-28T02:31:03;21.20;;;20.50;;
908;SDS011;441;51.192;6.788;2023-07-28T02:33:30;20.67;;;19.97;;
908;SDS011;441;51.192;6.788;2023-07-28T02:36:02;20.40;;;19.70;;
908;SDS011;441;51.192;6.788;2023-07-28T02:38:29;19.93;;;19.33;;
908;SDS011;441;51.192;6.788;2023-07-28T02:40:55;21.27;;;19.57;;
908;SDS011;441;51.192;6.788;2023-07-28T02:43:22;20.23;;;19.63;;
908;SDS011;441;51.192;6.788;2023-07-28T02:45:48;19.43;;;18.70;;
908;SDS011;441;51.192;6.788;2023-07-28T02:48:19;20.40;;;19.67;;
908;SDS011;441;51.192;6.788;2023-07-28T02:50:48;18.50;;;17.90;;
908;SDS011;441;51.192;6.788;2023-07-28T02:53:18;18.97;;;18.37;;
908;SDS011;441;51.192;6.788;2023-07-28T02:55:46;19.50;;;18.80;;
908;SDS011;441;51.192;6.788;2023-07-28T02:58:13;19.80;;;19.10;;
908;SDS011;441;51.192;6.788;2023-07-28T03:00:41;19.53;;;18.93;;
908;SDS011;441;51.192;6.788;2023-07-28T03:03:09;20.50;;;19.80;;
908;SDS011;441;51.192;6.788;2023-07-28T03:05:37;20.27;;;19.50;;
908;SDS011;441;51.192;6.788;2023-07-28T03:08:04;20.73;;;20.03;;
908;SDS011;441;51.192;6.788;2023-07-28T03:10:33;21.20;;;20.40;;
908;SDS011;441;51.192;6.788;2023-07-28T03:13:00;20.53;;;19.90;;
908;SDS011;441;51.192;6.788;2023-07-28T03:15:27;21.53;;;20.83;;
908;SDS011;441;51.192;6.788;2023-07-28T03:17:54;21.00;;;20.30;;
908;SDS011;441;51.192;6.788;2023-07-28T03:20:21;20.50;;;19.80;;
908;SDS011;441;51.192;6.788;2023-07-28T03:22:48;21.00;;;20.30;;
908;SDS011;441;51.192;6.788;2023-07-28T03:25:15;20.13;;;19.43;;
908;SDS011;441;51.192;6.788;2023-07-28T03:27:43;21.07;;;20.37;;
908;SDS011;441;51.192;6.788;2023-07-28T03:30:10;20.40;;;19.80;;
908;SDS011;441;51.192;6.788;2023-07-28T03:32:37;21.63;;;20.97;;
908;SDS011;441;51.192;6.788;2023-07-28T03:35:04;21.10;;;20.40;;
908;SDS011;441;51.192;6.788;2023-07-28T03:37:33;20.77;;;20.07;;
908;SDS011;441;51.192;6.788;2023-07-28T03:40:00;20.83;;;19.80;;
908;SDS011;441;51.192;6.788;2023-07-28T03:42:27;21.20;;;20.50;;
908;SDS011;441;51.192;6.788;2023-07-28T03:44:55;21.10;;;20.40;;
908;SDS011;441;51.192;6.788;2023-07-28T03:47:22;20.80;;;20.20;;
908;SDS011;441;51.192;6.788;2023-07-28T03:49:49;19.20;;;18.50;;
908;SDS011;441;51.192;6.788;2023-07-28T03:52:16;18.63;;;18.03;;
908;SDS011;441;51.192;6.788;2023-07-28T03:54:43;20.00;;;19.30;;
908;SDS011;441;51.192;6.788;2023-07-28T03:57:10;21.40;;;20.70;;
908;SDS011;441;51.192;6.788;2023-07-28T03:59:37;22.90;;;22.20;;
908;SDS011;441;51.192;6.788;2023-07-28T04:02:05;23.20;;;22.40;;
908;SDS011;441;51.192;6.788;2023-07-28T04:04:32;21.30;;;20.60;;
908;SDS011;441;51.192;6.788;2023-07-28T04:06:59;21.77;;;21.07;;
908;SDS011;441;51.192;6.788;2023-07-28T04:09:26;23.33;;;22.53;;
908;SDS011;441;51.192;6.788;2023-07-28T04:11:53;22.67;;;21.97;;
908;SDS011;441;51.192;6.788;2023-07-28T04:14:20;22.10;;;21.10;;
908;SDS011;441;51.192;6.788;2023-07-28T04:16:47;22.53;;;21.70;;
908;SDS011;441;51.192;6.788;2023-07-28T04:19:15;27.37;;;25.63;;
908;SDS011;441;51.192;6.788;2023-07-28T04:21:42;27.87;;;25.97;;
908;SDS011;441;51.192;6.788;2023-07-28T04:24:10;24.57;;;23.27;;
908;SDS011;441;51.192;6.788;2023-07-28T04:26:37;32.73;;;31.27;;
908;SDS011;441;51.192;6.788;2023-07-28T04:29:04;34.63;;;32.73;;
908;SDS011;441;51.192;6.788;2023-07-28T04:31:31;31.60;;;29.93;;
908;SDS011;441;51.192;6.788;2023-07-28T04:33:58;32.20;;;30.93;;
908;SDS011;441;51.192;6.788;2023-07-28T04:36:26;30.80;;;29.80;;
908;SDS011;441;51.192;6.788;2023-07-28T04:38:53;32.53;;;31.53;;
908;SDS011;441;51.192;6.788;2023-07-28T04:41:20;31.40;;;30.20;;
908;SDS011;441;51.192;6.788;2023-07-28T04:43:47;26.00;;;25.00;;
908;SDS011;441;51.192;6.788;2023-07-28T04:46:14;26.73;;;25.40;;
908;SDS011;441;51.192;6.788;2023-07-28T04:48:41;25.23;;;24.23;;
908;SDS011;441;51.192;6.788;2023-07-28T04:51:07;24.37;;;23.27;;
908;SDS011;441;51.192;6.788;2023-07-28T04:53:36;23.90;;;22.90;;
908;SDS011;441;51.192;6.788;2023-07-28T04:56:03;23.77;;;22.80;;
908;SDS011;441;51.192;6.788;2023-07-28T04:58:30;27.30;;;26.10;;
908;SDS011;441;51.192;6.788;2023-07-28T05:00:57;25.87;;;24.57;;
908;SDS011;441;51.192;6.788;2023-07-28T05:03:24;25.93;;;24.60;;
908;SDS011;441;51.192;6.788;2023-07-28T05:05:51;25.37;;;24.47;;
908;SDS011;441;51.192;6.788;2023-07-28T05:08:18;25.70;;;24.70;;
908;SDS011;441;51.192;6.788;2023-07-28T05:10:46;25.13;;;24.23;;
908;SDS011;441;51.192;6.788;2023-07-28T05:13:13;24.67;;;23.70;;
908;SDS011;441;51.192;6.788;2023-07-28T05:15:40;24.80;;;23.90;;
908;SDS011;441;51.192;6.788;2023-07-28T05:18:07;27.00;;;26.00;;
908;SDS011;441;51.192;6.788;2023-07-28T05:20:34;24.90;;;24.00;;
908;SDS011;441;51.192;6.788;2023-07-28T05:23:01;23.20;;;22.40;;
908;SDS011;441;51.192;6.788;2023-07-28T05:25:28;24.50;;;23.57;;
908;SDS011;441;51.192;6.788;2023-07-28T05:27:56;24.07;;;23.27;;
908;SDS011;441;51.192;6.788;2023-07-28T05:30:23;24.00;;;23.20;;
908;SDS011;441;51.192;6.788;2023-07-28T05:32:50;24.47;;;23.67;;
908;SDS011;441;51.192;6.788;2023-07-28T05:35:17;24.97;;;23.97;;
908;SDS011;441;51.192;6.788;2023-07-28T05:37:45;23.23;;;22.43;;
908;SDS011;441;51.192;6.788;2023-07-28T05:40:12;25.00;;;24.10;;
908;SDS011;441;51.192;6.788;2023-07-28T05:42:39;25.03;;;24.13;;
908;SDS011;441;51.192;6.788;2023-07-28T05:45:08;24.37;;;23.47;;
908;SDS011;441;51.192;6.788;2023-07-28T05:47:36;24.70;;;23.80;;
908;SDS011;441;51.192;6.788;2023-07-28T05:50:03;24.07;;;23.17;;
908;SDS011;441;51.192;6.788;2023-07-28T05:52:31;24.17;;;23.30;;
908;SDS011;441;51.192;6.788;2023-07-28T05:54:58;23.20;;;22.50;;
908;SDS011;441;51.192;6.788;2023-07-28T05:57:25;24.33;;;23.20;;
908;SDS011;441;51.192;6.788;2023-07-28T05:59:52;23.37;;;22.57;;
908;SDS011;441;51.192;6.788;2023-07-28T06:02:20;25.97;;;25.17;;
908;SDS011;441;51.192;6.788;2023-07-28T06:04:47;24.90;;;23.93;;
908;SDS011;441;51.192;6.788;2023-07-28T06:07:14;26.20;;;25.20;;
908;SDS011;441;51.192;6.788;2023-07-28T06:09:41;25.43;;;24.63;;
908;SDS011;441;51.192;6.788;2023-07-28T06:12:08;27.77;;;26.60;;
908;SDS011;441;51.192;6.788;2023-07-28T06:14:35;26.10;;;25.20;;
908;SDS011;441;51.192;6.788;2023-07-28T06:17:02;25.97;;;25.10;;
908;SDS011;441;51.192;6.788;2023-07-28T06:19:31;26.40;;;25.43;;
908;SDS011;441;51.192;6.788;2023-07-28T06:21:57;26.17;;;25.37;;
908;SDS011;441;51.192;6.788;2023-07-28T06:24:25;26.90;;;26.00;;
908;SDS011;441;51.192;6.788;2023-07-28T06:26:52;26.87;;;25.97;;
908;SDS011;441;51.192;6.788;2023-07-28T06:29:19;27.30;;;26.20;;
908;SDS011;441;51.192;6.788;2023-07-28T06:31:46;25.57;;;24.67;;
908;SDS011;441;51.192;6.788;2023-07-28T06:34:13;24.23;;;23.43;;
908;SDS011;441;51.192;6.788;2023-07-28T06:36:41;24.43;;;23.53;;
908;SDS011;441;51.192;6.788;2023-07-28T06:39:08;25.03;;;24.23;;
908;SDS011;441;51.192;6.788;2023-07-28T06:41:35;24.60;;;23.80;;
908;SDS011;441;51.192;6.788;2023-07-28T06:44:02;25.43;;;24.53;;
908;SDS011;441;51.192;6.788;2023-07-28T06:46:29;23.47;;;22.67;;
908;SDS011;441;51.192;6.788;2023-07-28T06:48:56;24.20;;;23.20;;
908;SDS011;441;51.192;6.788;2023-07-28T06:51:23;25.27;;;24.47;;
908;SDS011;441;51.192;6.788;2023-07-28T06:53:51;25.53;;;24.70;;
908;SDS011;441;51.192;6.788;2023-07-28T06:56:18;25.23;;;24.23;;
908;SDS011;441;51.192;6.788;2023-07-28T06:58:44;26.20;;;25.30;;
908;SDS011;441;51.192;6.788;2023-07-28T07:01:11;24.70;;;23.90;;
908;SDS011;441;51.192;6.788;2023-07-28T07:03:38;22.70;;;22.00;;
908;SDS011;441;51.192;6.788;2023-07-28T07:06:05;25.00;;;24.10;;
908;SDS011;441;51.192;6.788;2023-07-28T07:08:32;23.53;;;22.73;;
908;SDS011;441;51.192;6.788;2023-07-28T07:11:00;25.17;;;24.33;;
908;SDS011;441;51.192;6.788;2023-07-28T07:13:27;25.07;;;24.17;;
908;SDS011;441;51.192;6.788;2023-07-28T07:15:54;24.83;;;24.03;;
908;SDS011;441;51.192;6.788;2023-07-28T07:18:21;24.63;;;23.83;;
908;SDS011;441;51.192;6.788;2023-07-28T07:20:48;23.40;;;22.60;;
908;SDS011;441;51.192;6.788;2023-07-28T07:23:15;24.67;;;23.87;;
908;SDS011;441;51.192;6.788;2023-07-28T07:25:42;24.53;;;23.63;;
908;SDS011;441;51.192;6.788;2023-07-28T07:28:10;24.80;;;24.00;;
908;SDS011;441;51.192;6.788;2023-07-28T07:30:37;25.37;;;24.47;;
908;SDS011;441;51.192;6.788;2023-07-28T07:33:05;25.33;;;24.53;;
908;SDS011;441;51.192;6.788;2023-07-28T07:35:35;25.97;;;25.07;;
908;SDS011;441;51.192;6.788;2023-07-28T07:38:04;25.57;;;24.67;;
908;SDS011;441;51.192;6.788;2023-07-28T07:40:33;23.90;;;23.00;;
908;SDS011;441;51.192;6.788;2023-07-28T07:43:00;26.63;;;25.73;;
908;SDS011;441;51.192;6.788;2023-07-28T07:45:29;24.37;;;23.57;;
908;SDS011;441;51.192;6.788;2023-07-28T07:47:57;25.03;;;24.23;;
908;SDS011;441;51.192;6.788;2023-07-28T07:50:24;25.07;;;24.27;;
908;SDS011;441;51.192;6.788;2023-07-28T07:52:51;26.07;;;25.17;;
908;SDS011;441;51.192;6.788;2023-07-28T07:55:18;24.80;;;23.93;;
908;SDS011;441;51.192;6.788;2023-07-28T07:57:45;25.00;;;24.20;;
908;SDS011;441;51.192;6.788;2023-07-28T08:00:12;24.50;;;23.70;;
908;SDS011;441;51.192;6.788;2023-07-28T08:02:41;24.70;;;23.90;;
908;SDS011;441;51.192;6.788;2023-07-28T08:05:08;24.57;;;23.77;;
908;SDS011;441;51.192;6.788;2023-07-28T08:07:35;25.70;;;24.80;;
908;SDS011;441;51.192;6.788;2023-07-28T08:10:02;25.63;;;24.73;;
908;SDS011;441;51.192;6.788;2023-07-28T08:12:29;26.10;;;25.20;;
908;SDS011;441;51.192;6.788;2023-07-28T08:14:57;25.63;;;24.73;;
908;SDS011;441;51.192;6.788;2023-07-28T08:17:24;25.73;;;24.83;;
908;SDS011;441;51.192;6.788;2023-07-28T08:19:52;26.10;;;25.20;;
908;SDS011;441;51.192;6.788;2023-07-28T08:22:19;24.83;;;23.83;;
908;SDS011;441;51.192;6.788;2023-07-28T08:24:46;26.03;;;25.13;;
908;SDS011;441;51.192;6.788;2023-07-28T08:27:13;23.73;;;22.93;;
908;SDS011;441;51.192;6.788;2023-07-28T08:29:40;26.50;;;25.50;;
908;SDS011;441;51.192;6.788;2023-07-28T08:32:07;26.40;;;25.50;;
908;SDS011;441;51.192;6.788;2023-07-28T08:34:35;26.37;;;25.47;;
908;SDS011;441;51.192;6.788;2023-07-28T08:37:03;25.70;;;24.73;;
908;SDS011;441;51.192;6.788;2023-07-28T08:39:30;25.90;;;25.00;;
908;SDS011;441;51.192;6.788;2023-07-28T08:41:57;22.43;;;21.63;;
908;SDS011;441;51.192;6.788;2023-07-28T08:44:25;24.57;;;23.57;;
908;SDS011;441;51.192;6.788;2023-07-28T08:46:52;23.60;;;22.60;;
908;SDS011;441;51.192;6.788;2023-07-28T08:49:20;24.20;;;23.30;;
908;SDS011;441;51.192;6.788;2023-07-28T08:51:48;25.17;;;24.27;;
908;SDS011;441;51.192;6.788;2023-07-28T08:54:17;25.83;;;24.93;;
908;SDS011;441;51.192;6.788;2023-07-28T08:56:44;24.20;;;23.30;;
908;SDS011;441;51.192;6.788;2023-07-28T08:59:11;24.17;;;23.37;;
908;SDS011;441;51.192;6.788;2023-07-28T09:01:38;23.87;;;22.97;;
908;SDS011;441;51.192;6.788;2023-07-28T09:04:08;24.80;;;23.90;;
908;SDS011;441;51.192;6.788;2023-07-28T09:06:37;26.13;;;24.87;;
908;SDS011;441;51.192;6.788;2023-07-28T09:09:05;24.43;;;23.53;;
908;SDS011;441;51.192;6.788;2023-07-28T09:11:35;25.37;;;24.27;;
908;SDS011;441;51.192;6.788;2023-07-28T09:14:11;24.33;;;23.53;;
908;SDS011;441;51.192;6.788;2023-07-28T09:16:38;27.50;;;26.50;;
908;SDS011;441;51.192;6.788;2023-07-28T09:19:06;23.27;;;22.37;;
908;SDS011;441;51.192;6.788;2023-07-28T09:21:33;23.97;;;23.10;;
908;SDS011;441;51.192;6.788;2023-07-28T09:24:01;24.10;;;23.30;;
908;SDS011;441;51.192;6.788;2023-07-28T09:26:37;24.20;;;23.23;;
908;SDS011;441;51.192;6.788;2023-07-28T09:29:12;23.87;;;22.87;;
908;SDS011;441;51.192;6.788;2023-07-28T09:31:40;25.40;;;24.40;;
908;SDS011;441;51.192;6.788;2023-07-28T09:34:07;25.60;;;24.63;;
908;SDS011;441;51.192;6.788;2023-07-28T09:36:34;24.03;;;23.13;;
908;SDS011;441;51.192;6.788;2023-07-28T09:39:03;24.40;;;23.50;;
908;SDS011;441;51.192;6.788;2023-07-28T09:41:32;23.93;;;23.03;;
908;SDS011;441;51.192;6.788;2023-07-28T09:44:02;23.70;;;22.70;;
908;SDS011;441;51.192;6.788;2023-07-28T09:46:30;25.00;;;23.27;;
908;SDS011;441;51.192;6.788;2023-07-28T09:49:00;24.20;;;23.27;;
908;SDS011;441;51.192;6.788;2023-07-28T09:51:32;24.53;;;23.63;;
908;SDS011;441;51.192;6.788;2023-07-28T09:54:03;24.30;;;23.40;;
908;SDS011;441;51.192;6.788;2023-07-28T09:56:31;26.40;;;25.30;;
908;SDS011;441;51.192;6.788;2023-07-28T09:58:59;23.90;;;22.87;;
908;SDS011;441;51.192;6.788;2023-07-28T10:01:35;25.43;;;24.53;;
908;SDS011;441;51.192;6.788;2023-07-28T10:04:02;25.23;;;24.27;;
908;SDS011;441;51.192;6.788;2023-07-28T10:06:30;24.60;;;23.70;;
908;SDS011;441;51.192;6.788;2023-07-28T10:08:58;26.33;;;25.43;;
908;SDS011;441;51.192;6.788;2023-07-28T10:11:25;26.30;;;25.30;;
908;SDS011;441;51.192;6.788;2023-07-28T10:13:54;25.47;;;24.60;;
908;SDS011;441;51.192;6.788;2023-07-28T10:16:30;26.60;;;25.60;;
908;SDS011;441;51.192;6.788;2023-07-28T10:19:03;27.20;;;26.20;;
908;SDS011;441;51.192;6.788;2023-07-28T10:21:30;26.57;;;25.57;;
908;SDS011;441;51.192;6.788;2023-07-28T10:23:58;26.00;;;25.10;;
908;SDS011;441;51.192;6.788;2023-07-28T10:26:30;25.60;;;24.70;;
908;SDS011;441;51.192;6.788;2023-07-28T10:31:50;24.87;;;23.87;;
908;SDS011;441;51.192;6.788;2023-07-28T10:34:18;26.10;;;25.20;;
908;SDS011;441;51.192;6.788;2023-07-28T10:36:47;26.30;;;25.30;;
908;SDS011;441;51.192;6.788;2023-07-28T10:39:22;26.97;;;25.97;;
908;SDS011;441;51.192;6.788;2023-07-28T10:42:00;27.33;;;26.23;;
908;SDS011;441;51.192;6.788;2023-07-28T10:44:28;25.83;;;24.93;;
908;SDS011;441;51.192;6.788;2023-07-28T10:46:57;26.80;;;25.83;;
908;SDS011;441;51.192;6.788;2023-07-28T10:49:24;25.73;;;24.83;;
908;SDS011;441;51.192;6.788;2023-07-28T10:51:51;25.30;;;24.40;;
908;SDS011;441;51.192;6.788;2023-07-28T10:54:18;26.10;;;25.10;;
908;SDS011;441;51.192;6.788;2023-07-28T10:56:46;27.10;;;26.10;;
908;SDS011;441;51.192;6.788;2023-07-28T10:59:14;25.93;;;25.00;;
908;SDS011;441;51.192;6.788;2023-07-28T11:01:41;25.47;;;24.57;;
908;SDS011;441;51.192;6.788;2023-07-28T11:04:14;26.17;;;25.27;;
908;SDS011;441;51.192;6.788;2023-07-28T11:06:42;22.90;;;22.10;;
908;SDS011;441;51.192;6.788;2023-07-28T11:09:10;25.17;;;24.27;;
908;SDS011;441;51.192;6.788;2023-07-28T11:11:37;24.30;;;23.40;;
908;SDS011;441;51.192;6.788;2023-07-28T11:14:06;25.20;;;24.30;;
908;SDS011;441;51.192;6.788;2023-07-28T11:16:34;23.70;;;22.80;;
908;SDS011;441;51.192;6.788;2023-07-28T11:19:02;23.77;;;22.97;;
908;SDS011;441;51.192;6.788;2023-07-28T11:21:36;24.50;;;23.50;;
908;SDS011;441;51.192;6.788;2023-07-28T11:24:04;24.97;;;24.07;;
908;SDS011;441;51.192;6.788;2023-07-28T11:26:31;24.20;;;23.20;;
908;SDS011;441;51.192;6.788;2023-07-28T11:29:00;26.70;;;25.80;;
908;SDS011;441;51.192;6.788;2023-07-28T11:31:27;30.37;;;29.30;;
908;SDS011;441;51.192;6.788;2023-07-28T11:33:54;29.23;;;28.23;;
908;SDS011;441;51.192;6.788;2023-07-28T11:36:22;28.80;;;27.80;;
908;SDS011;441;51.192;6.788;2023-07-28T11:38:51;28.33;;;27.43;;
908;SDS011;441;51.192;6.788;2023-07-28T11:41:20;28.10;;;27.10;;
908;SDS011;441;51.192;6.788;2023-07-28T11:43:48;28.40;;;27.40;;
908;SDS011;441;51.192;6.788;2023-07-28T11:46:34;27.23;;;26.33;;
908;SDS011;441;51.192;6.788;2023-07-28T11:49:09;27.63;;;26.63;;
908;SDS011;441;51.192;6.788;2023-07-28T11:51:37;29.03;;;28.03;;
908;SDS011;441;51.192;6.788;2023-07-28T11:54:10;29.07;;;28.07;;
908;SDS011;441;51.192;6.788;2023-07-28T11:56:37;28.77;;;27.77;;
908;SDS011;441;51.192;6.788;2023-07-28T11:59:04;27.63;;;26.63;;
908;SDS011;441;51.192;6.788;2023-07-28T12:01:31;26.93;;;26.03;;
908;SDS011;441;51.192;6.788;2023-07-28T12:03:58;27.30;;;26.30;;
908;SDS011;441;51.192;6.788;2023-07-28T12:06:25;27.57;;;26.60;;
908;SDS011;441;51.192;6.788;2023-07-28T12:09:03;28.27;;;27.27;;
908;SDS011;441;51.192;6.788;2023-07-28T12:11:32;28.97;;;27.97;;
908;SDS011;441;51.192;6.788;2023-07-28T12:13:59;29.30;;;28.30;;
908;SDS011;441;51.192;6.788;2023-07-28T12:16:39;27.27;;;26.30;;
908;SDS011;441;51.192;6.788;2023-07-28T12:19:07;28.27;;;27.27;;
908;SDS011;441;51.192;6.788;2023-07-28T12:21:34;28.13;;;27.13;;
908;SDS011;441;51.192;6.788;2023-07-28T12:24:01;28.13;;;27.13;;
908;SDS011;441;51.192;6.788;2023-07-28T12:26:28;26.43;;;25.53;;
908;SDS011;441;51.192;6.788;2023-07-28T12:28:56;29.27;;;28.23;;
908;SDS011;441;51.192;6.788;2023-07-28T12:31:23;27.63;;;26.63;;
908;SDS011;441;51.192;6.788;2023-07-28T12:33:50;28.83;;;27.83;;
908;SDS011;441;51.192;6.788;2023-07-28T12:36:17;28.50;;;27.50;;
908;SDS011;441;51.192;6.788;2023-07-28T12:38:44;30.00;;;28.90;;
908;SDS011;441;51.192;6.788;2023-07-28T12:41:10;28.30;;;27.20;;
908;SDS011;441;51.192;6.788;2023-07-28T12:43:37;27.80;;;26.90;;
908;SDS011;441;51.192;6.788;2023-07-28T12:46:06;29.90;;;28.80;;
908;SDS011;441;51.192;6.788;2023-07-28T12:48:33;26.50;;;25.60;;
908;SDS011;441;51.192;6.788;2023-07-28T12:51:00;27.80;;;26.80;;
908;SDS011;441;51.192;6.788;2023-07-28T12:53:27;28.63;;;27.47;;
908;SDS011;441;51.192;6.788;2023-07-28T12:55:54;29.97;;;28.87;;
908;SDS011;441;51.192;6.788;2023-07-28T12:58:21;29.37;;;28.17;;
908;SDS011;441;51.192;6.788;2023-07-28T13:00:48;27.93;;;26.93;;
908;SDS011;441;51.192;6.788;2023-07-28T13:03:16;38.80;;;37.50;;
908;SDS011;441;51.192;6.788;2023-07-28T13:05:43;38.57;;;37.37;;
908;SDS011;441;51.192;6.788;2023-07-28T13:08:13;36.07;;;34.90;;
908;SDS011;441;51.192;6.788;2023-07-28T13:10:40;35.73;;;34.60;;
908;SDS011;441;51.192;6.788;2023-07-28T13:13:06;38.03;;;36.83;;
908;SDS011;441;51.192;6.788;2023-07-28T13:15:33;37.80;;;36.60;;
908;SDS011;441;51.192;6.788;2023-07-28T13:18:00;36.13;;;34.70;;
908;SDS011;441;51.192;6.788;2023-07-28T13:20:29;35.13;;;34.03;;
908;SDS011;441;51.192;6.788;2023-07-28T13:22:55;36.03;;;34.93;;
908;SDS011;441;51.192;6.788;2023-07-28T13:25:22;37.50;;;36.30;;
908;SDS011;441;51.192;6.788;2023-07-28T13:27:49;35.93;;;34.83;;
908;SDS011;441;51.192;6.788;2023-07-28T13:30:16;36.43;;;35.13;;
908;SDS011;441;51.192;6.788;2023-07-28T13:32:43;36.90;;;35.70;;
908;SDS011;441;51.192;6.788;2023-07-28T13:35:11;36.00;;;34.90;;
908;SDS011;441;51.192;6.788;2023-07-28T13:37:39;38.20;;;37.00;;
908;SDS011;441;51.192;6.788;2023-07-28T13:40:07;36.87;;;35.73;;
908;SDS011;441;51.192;6.788;2023-07-28T13:42:34;36.60;;;35.50;;
908;SDS011;441;51.192;6.788;2023-07-28T13:45:00;36.43;;;35.20;;
908;SDS011;441;51.192;6.788;2023-07-28T13:47:27;39.20;;;38.00;;
908;SDS011;441;51.192;6.788;2023-07-28T13:49:54;39.47;;;38.17;;
908;SDS011;441;51.192;6.788;2023-07-28T13:52:21;39.10;;;37.80;;
908;SDS011;441;51.192;6.788;2023-07-28T13:54:49;39.07;;;37.77;;
908;SDS011;441;51.192;6.788;2023-07-28T13:57:16;39.83;;;38.53;;
908;SDS011;441;51.192;6.788;2023-07-28T13:59:43;41.37;;;39.87;;
908;SDS011;441;51.192;6.788;2023-07-28T14:02:10;40.47;;;38.90;;
908;SDS011;441;51.192;6.788;2023-07-28T14:04:37;40.00;;;38.70;;
908;SDS011;441;51.192;6.788;2023-07-28T14:07:04;40.27;;;38.97;;
908;SDS011;441;51.192;6.788;2023-07-28T14:09:31;39.27;;;38.07;;
908;SDS011;441;51.192;6.788;2023-07-28T14:11:59;41.20;;;39.80;;
908;SDS011;441;51.192;6.788;2023-07-28T14:14:27;43.30;;;41.80;;
908;SDS011;441;51.192;6.788;2023-07-28T14:16:54;42.40;;;40.90;;
908;SDS011;441;51.192;6.788;2023-07-28T14:19:21;41.93;;;40.53;;
908;SDS011;441;51.192;6.788;2023-07-28T14:21:48;41.07;;;39.77;;
908;SDS011;441;51.192;6.788;2023-07-28T14:24:15;42.70;;;41.40;;
908;SDS011;441;51.192;6.788;2023-07-28T14:26:42;42.30;;;40.70;;
908;SDS011;441;51.192;6.788;2023-07-28T14:29:10;41.23;;;39.83;;
908;SDS011;441;51.192;6.788;2023-07-28T14:31:37;43.90;;;42.50;;
908;SDS011;441;51.192;6.788;2023-07-28T14:34:04;42.30;;;40.90;;
908;SDS011;441;51.192;6.788;2023-07-28T14:36:31;42.03;;;40.63;;
908;SDS011;441;51.192;6.788;2023-07-28T14:38:59;44.43;;;43.03;;
908;SDS011;441;51.192;6.788;2023-07-28T14:41:26;41.20;;;39.77;;
908;SDS011;441;51.192;6.788;2023-07-28T14:43:53;44.90;;;43.30;;
908;SDS011;441;51.192;6.788;2023-07-28T14:46:22;43.50;;;41.90;;
908;SDS011;441;51.192;6.788;2023-07-28T14:48:50;40.70;;;39.30;;
908;SDS011;441;51.192;6.788;2023-07-28T14:51:16;41.70;;;40.30;;
908;SDS011;441;51.192;6.788;2023-07-28T14:53:45;42.83;;;41.30;;
908;SDS011;441;51.192;6.788;2023-07-28T14:56:12;44.73;;;43.03;;
908;SDS011;441;51.192;6.788;2023-07-28T14:58:40;40.03;;;38.47;;
908;SDS011;441;51.192;6.788;2023-07-28T15:01:07;42.80;;;41.40;;
908;SDS011;441;51.192;6.788;2023-07-28T15:03:50;41.53;;;40.23;;
908;SDS011;441;51.192;6.788;2023-07-28T15:06:18;42.30;;;40.70;;
908;SDS011;441;51.192;6.788;2023-07-28T15:08:48;41.40;;;40.10;;
908;SDS011;441;51.192;6.788;2023-07-28T15:11:17;40.20;;;38.90;;
908;SDS011;441;51.192;6.788;2023-07-28T15:13:45;40.70;;;39.30;;
908;SDS011;441;51.192;6.788;2023-07-28T15:16:14;41.60;;;40.10;;
908;SDS011;441;51.192;6.788;2023-07-28T15:18:45;39.97;;;38.67;;
908;SDS011;441;51.192;6.788;2023-07-28T15:21:17;41.77;;;40.30;;